NCAR-RAP Real-Time Weather Data

Output produced by METARs form (08 May 2021  00:17 UTC)
found at http://weather.rap.ucar.edu/surface/
 
KFYV 080009Z 08005KT 9SM VCTS -RA FEW041 FEW055 OVC100 12/08 A3003 RMK AO2 LTG DSNT NE-S TSE2355 P0003 T01220078
KFYV 072359Z 05005KT 9SM -RA FEW038 OVC100 12/08 A3004 RMK AO2 LTG DSNT NE-S TSE55 P0001 T01220083
KFYV 072353Z 17004KT 10SM -TSRA FEW038 BKN100 OVC110 12/08 A3003 RMK AO2 LTG DSNT NE-S RAB02E27B37 TSB38 SLP169 P0011 60013 T01220083 10183 20122 58033
KFYV 072341Z 15007KT 2 1/2SM +TSRA FEW037 SCT049 OVC095 13/07 A3003 RMK AO2 LTG DSNT ALQDS RAB02E27B37 TSB38 P0010 T01280072
KFYV 072328Z 01003KT 10SM VCTS BKN095 13/08 A3007 RMK AO2 LTG DSNT W AND NW RAB02E27 P0001 T01280083
KFYV 072253Z 08004KT 10SM OVC090 14/08 A3008 RMK AO2 LTG DSNT NE AND SE RAB2157E46 SLP185 P0002 T01390078
KFYV 072153Z 18004KT 10SM OVC090 17/03 A3009 RMK AO2 SLP187 T01670033
KFYV 072053Z 17009KT 10SM BKN080 OVC100 18/01 A3013 RMK AO2 SLP200 T01780006 56026
KFYV 071953Z 17008KT 10SM OVC080 18/04 A3015 RMK AO2 SLP208 T01780039
KFYV 071853Z 00000KT 10SM OVC080 17/06 A3016 RMK AO2 LTG DSNT NW SLP212 T01670056
KFYV 071753Z 16003KT 10SM OVC085 15/08 A3021 RMK AO2 RAB05E47 SLP229 P0000 60000 T01500083 10178 20056 58010
KFYV 071653Z 20005KT 10SM OVC095 17/06 A3023 RMK AO2 SLP233 T01670061
KFYV 071553Z 21006KT 10SM OVC090 16/05 A3023 RMK AO2 SLP233 T01610050
KFYV 071453Z 21006KT 10SM BKN095 OVC120 17/06 A3024 RMK AO2 SLP235 T01670056 50001
KFYV 071353Z 17005KT 10SM SCT090 14/08 A3024 RMK AO2 SLP236 T01440078
KFYV 071253Z 17004KT 10SM CLR 08/07 A3025 RMK AO2 SLP239 T00780067
KFYV 071153Z 00000KT 10SM SCT110 06/04 A3024 RMK AO2 SLP237 T00560044 10072 20039 53007
KFYV 071053Z 00000KT 10SM CLR 05/04 A3023 RMK AO2 SLP231 T00500039
KFYV 070953Z AUTO 20007KT 10SM CLR 04/03 A3022 RMK AO2 SLP230 T00440033